Time;durP1;ratioP1;P1;durP2;ratioP2;P2;SDS_P1;SDS_P2;PMS_P1;PMS_P2;Temp;Humidity;BMP_temperature;BMP_pressure;BME280_temperature;BME280_humidity;BME280_pressure;Samples;Min_cycle;Max_cycle;Signal;HPM_P1;HPM_P2
2023/11/01 05:01:37;;;;;;;18.80;9.20;;;;;;;10.18;74.46;98387.67;107438;1261;111456;-78
2023/11/01 05:04:04;;;;;;;16.40;8.30;;;;;;;10.16;74.44;98387.82;107508;1253;97704;-79
2023/11/01 05:06:32;;;;;;;15.40;7.70;;;;;;;10.15;74.54;98395.11;107503;1247;96634;-79
2023/11/01 05:09:01;;;;;;;17.50;8.10;;;;;;;10.16;74.63;98394.73;107374;1247;96649;-79
2023/11/01 05:11:30;;;;;;;18.70;8.50;;;;;;;10.18;74.55;98399.49;107292;1248;96605;-81
2023/11/01 05:13:57;;;;;;;16.50;7.90;;;;;;;10.18;74.73;98401.60;107426;1244;109763;-79
2023/11/01 05:16:25;;;;;;;17.60;8.30;;;;;;;10.19;74.62;98403.50;107739;1240;96578;-78
2023/11/01 05:19:10;;;;;;;15.70;8.40;;;;;;;10.22;74.65;98406.92;102287;1292;636072;-79
2023/11/01 05:21:42;;;;;;;17.30;8.00;;;;;;;10.21;74.76;98409.88;104633;1263;94322;-78
2023/11/01 05:24:10;;;;;;;16.40;8.00;;;;;;;10.21;74.72;98414.80;104601;1268;94322;-78
2023/11/01 05:26:39;;;;;;;16.90;8.90;;;;;;;10.20;74.74;98417.23;104907;1262;108028;-78
2023/11/01 05:29:16;;;;;;;;;;;;;;;10.17;74.79;98425.58;104875;1267;95516;-78
2023/11/01 05:32:02;;;;;;;17.90;8.70;;;;;;;10.16;74.70;98431.06;104778;1256;182304;-78
2023/11/01 05:34:31;;;;;;;17.30;9.10;;;;;;;10.16;74.82;98435.31;105251;1258;95666;-79
2023/11/01 05:36:58;;;;;;;15.50;8.10;;;;;;;10.16;74.84;98439.88;105230;1258;94305;-79
2023/11/01 05:39:27;;;;;;;16.50;8.10;;;;;;;10.16;74.94;98442.20;105063;1255;107315;-78
2023/11/01 05:41:57;;;;;;;17.60;8.30;;;;;;;10.13;74.78;98451.95;105122;1261;95146;-79
2023/11/01 05:44:25;;;;;;;17.20;8.30;;;;;;;10.12;74.81;98453.08;104996;1259;107587;-79
2023/11/01 05:47:32;;;;;;;16.60;8.20;;;;;;;10.13;74.88;98457.88;104954;1261;96156;-79
2023/11/01 05:50:51;;;;;;;18.60;8.80;;;;;;;10.14;74.80;98464.14;105289;1255;95249;-79
2023/11/01 05:53:19;;;;;;;17.80;8.40;;;;;;;10.16;74.84;98465.95;105236;1259;108795;-78
2023/11/01 05:55:49;;;;;;;16.10;7.80;;;;;;;10.18;74.91;98472.34;105277;1260;97218;-78
2023/11/01 05:58:35;;;;;;;18.80;9.80;;;;;;;10.21;74.94;98478.97;105369;1258;107605;-79
2023/11/01 06:01:26;;;;;;;20.60;9.10;;;;;;;10.23;74.95;98482.00;105042;1253;96178;-82
2023/11/01 06:04:00;;;;;;;17.00;8.50;;;;;;;10.25;74.96;98488.38;105358;1258;95303;-78
2023/11/01 06:06:29;;;;;;;20.10;8.60;;;;;;;10.28;74.95;98491.32;105441;1260;108560;-78
2023/11/01 06:09:00;;;;;;;17.50;8.20;;;;;;;10.32;74.93;98497.04;105279;1258;95169;-79
2023/11/01 06:11:31;;;;;;;19.10;8.50;;;;;;;10.36;74.96;98501.16;104964;1260;107630;-78
2023/11/01 06:14:00;;;;;;;16.90;8.70;;;;;;;10.40;74.92;98506.03;104839;1261;95257;-78
2023/11/01 06:16:28;;;;;;;17.20;8.20;;;;;;;10.42;74.97;98512.20;105267;1258;96062;-79
2023/11/01 06:18:57;;;;;;;17.40;8.70;;;;;;;10.45;74.91;98512.67;105245;1253;108887;-78
2023/11/01 06:21:26;;;;;;;21.80;9.70;;;;;;;10.50;74.94;98513.92;105051;1253;95534;-78
2023/11/01 06:23:57;;;;;;;19.20;9.10;;;;;;;10.54;75.04;98516.55;105047;1261;107668;-80
2023/11/01 06:26:26;;;;;;;19.60;10.10;;;;;;;10.58;74.96;98520.87;105241;1253;95309;-78
2023/11/01 06:28:54;;;;;;;17.80;9.30;;;;;;;10.61;75.03;98522.06;105216;1259;95315;-79
2023/11/01 06:31:22;;;;;;;16.60;8.40;;;;;;;10.65;74.99;98525.60;105520;1258;108242;-79
2023/11/01 06:33:51;;;;;;;14.70;7.20;;;;;;;10.69;75.04;98529.36;104982;1262;95330;-79
2023/11/01 06:36:20;;;;;;;17.30;7.40;;;;;;;10.74;75.08;98533.75;105349;1259;107329;-78
2023/11/01 06:38:48;;;;;;;14.90;7.30;;;;;;;10.78;75.03;98534.18;105091;1271;95380;-79
2023/11/01 06:41:40;;;;;;;11.90;6.40;;;;;;;10.80;74.96;98538.45;105256;1258;95232;-79
2023/11/01 06:44:13;;;;;;;13.50;6.80;;;;;;;10.82;75.01;98544.11;105494;1256;108179;-78
2023/11/01 06:46:41;;;;;;;13.50;7.00;;;;;;;10.84;75.07;98545.86;104962;1260;95602;-78
2023/11/01 06:49:15;;;;;;;20.50;9.80;;;;;;;10.88;75.03;98547.51;105118;1266;107415;-79
2023/11/01 06:51:44;;;;;;;19.00;8.50;;;;;;;10.91;75.05;98548.77;105038;1253;95389;-78
2023/11/01 06:54:30;;;;;;;18.80;8.20;;;;;;;10.92;75.03;98548.08;105438;1257;95179;-79
2023/11/01 06:56:58;;;;;;;17.70;8.70;;;;;;;10.95;75.04;98558.11;105086;1254;108607;-78
2023/11/01 06:59:26;;;;;;;19.10;9.10;;;;;;;11.00;74.98;98557.89;105502;1257;95861;-79
2023/11/01 07:01:57;;;;;;;18.40;8.90;;;;;;;11.06;75.12;98560.29;105168;1266;109294;-79
2023/11/01 07:04:45;;;;;;;16.30;7.90;;;;;;;11.11;75.00;98560.36;105110;1259;95303;-79
2023/11/01 07:07:24;;;;;;;15.00;7.10;;;;;;;11.16;75.12;98567.23;105536;1254;95721;-78
2023/11/01 07:09:53;;;;;;;12.90;6.60;;;;;;;11.21;75.08;98572.38;105402;1259;108276;-87
2023/11/01 07:12:21;;;;;;;13.50;6.70;;;;;;;11.22;74.93;98574.71;105501;1258;95492;-79
2023/11/01 07:14:49;;;;;;;13.00;6.30;;;;;;;11.24;75.07;98578.79;105475;1263;105775;-80
2023/11/01 07:17:27;;;;;;;14.20;6.10;;;;;;;11.26;74.96;98583.46;105240;1258;95328;-79
2023/11/01 07:19:57;;;;;;;13.60;6.30;;;;;;;11.29;75.03;98583.17;105434;1256;95250;-80
2023/11/01 07:22:27;;;;;;;14.70;6.80;;;;;;;11.33;75.06;98587.66;105204;1258;108058;-82
2023/11/01 07:24:56;;;;;;;14.70;6.20;;;;;;;11.36;75.06;98587.05;105221;1262;96081;-79
2023/11/01 07:27:26;;;;;;;11.90;5.80;;;;;;;11.41;75.09;98592.17;105650;1265;107259;-80
2023/11/01 07:30:04;;;;;;;9.40;5.10;;;;;;;11.44;75.04;98591.54;105332;1253;95246;-79
2023/11/01 07:32:32;;;;;;;10.80;5.10;;;;;;;11.50;75.08;98590.67;105350;1257;95250;-82
2023/11/01 07:35:02;;;;;;;11.40;5.50;;;;;;;11.55;74.96;98588.30;105607;1256;108585;-81
2023/11/01 07:37:32;;;;;;;13.90;5.30;;;;;;;11.57;74.91;98589.02;105337;1271;95270;-79
2023/11/01 07:40:00;;;;;;;14.30;5.80;;;;;;;11.61;74.96;98584.94;105392;1258;108319;-79
2023/11/01 07:42:33;;;;;;;12.80;5.20;;;;;;;11.67;74.95;98591.20;105554;1256;95261;-80
2023/11/01 07:45:04;;;;;;;11.50;5.70;;;;;;;11.72;75.00;98595.64;105102;1259;96086;-80
2023/11/01 07:47:32;;;;;;;13.60;5.80;;;;;;;11.77;75.00;98597.84;105270;1258;108592;-79
2023/11/01 07:50:00;;;;;;;14.20;6.20;;;;;;;11.82;74.97;98603.79;105157;1257;95152;-79
2023/11/01 07:52:28;;;;;;;12.80;5.40;;;;;;;11.85;75.06;98606.20;105501;1259;107129;-80
2023/11/01 07:55:02;;;;;;;13.30;5.50;;;;;;;11.88;74.91;98608.32;105481;1258;95266;-82
2023/11/01 07:57:48;;;;;;;15.70;6.50;;;;;;;11.92;74.85;98606.89;102770;1287;636338;-80
2023/11/01 08:00:20;;;;;;;16.60;6.60;;;;;;;11.92;74.88;98609.22;104580;1272;94417;-80
2023/11/01 08:02:50;;;;;;;16.20;7.20;;;;;;;11.97;75.04;98615.00;104467;1270;94156;-80
2023/11/01 08:05:20;;;;;;;16.90;7.10;;;;;;;12.01;74.83;98612.67;104437;1275;106750;-81
2023/11/01 08:07:49;;;;;;;13.90;6.30;;;;;;;12.05;74.90;98611.67;105053;1269;94373;-81
2023/11/01 08:12:58;;;;;;;16.50;7.00;;;;;;;12.17;74.82;98613.65;102314;1302;635489;-81
2023/11/01 08:15:27;;;;;;;15.30;6.90;;;;;;;12.20;74.73;98616.27;104303;1270;94341;-87
2023/11/01 08:17:56;;;;;;;12.50;6.40;;;;;;;12.21;74.77;98617.38;105137;1263;94307;-81
2023/11/01 08:20:32;;;;;;;14.20;6.20;;;;;;;12.23;74.68;98619.42;105139;1257;106979;-80
2023/11/01 08:23:01;;;;;;;15.80;6.80;;;;;;;12.25;74.70;98620.81;104885;1266;95734;-79
2023/11/01 08:25:31;;;;;;;12.00;5.30;;;;;;;12.30;74.77;98622.91;105009;1258;167370;-79
2023/11/01 08:27:59;;;;;;;12.80;6.20;;;;;;;12.33;74.63;98620.63;105007;1257;94271;-83
2023/11/01 08:30:27;;;;;;;14.20;5.70;;;;;;;12.36;74.65;98622.02;105029;1261;94431;-80
2023/11/01 08:32:56;;;;;;;11.40;5.20;;;;;;;12.39;74.73;98619.95;105387;1260;107309;-80
2023/11/01 08:35:30;;;;;;;9.10;4.80;;;;;;;12.39;74.47;98620.98;105041;1264;96186;-79
2023/11/01 08:37:58;;;;;;;10.10;4.60;;;;;;;12.42;74.64;98621.48;104934;1264;107267;-82
2023/11/01 08:40:30;;;;;;;10.40;4.60;;;;;;;12.50;74.68;98625.77;105210;1263;96201;-79
2023/11/01 08:42:59;;;;;;;10.70;4.60;;;;;;;12.58;74.51;98630.18;105323;1262;96232;-82
2023/11/01 08:45:27;;;;;;;10.90;4.50;;;;;;;12.63;74.40;98631.17;105422;1254;108050;-80
2023/11/01 08:47:55;;;;;;;8.80;4.30;;;;;;;12.71;74.56;98634.64;105500;1260;95431;-77
2023/11/01 08:50:37;;;;;;;9.40;4.50;;;;;;;12.75;74.33;98633.67;105418;1259;107303;-79
2023/11/01 08:53:06;;;;;;;12.10;4.20;;;;;;;12.79;74.31;98634.94;105126;1260;96270;-78
2023/11/01 08:56:20;;;;;;;11.00;4.80;;;;;;;12.86;74.39;98633.95;104980;1260;95211;-78
2023/11/01 08:58:49;;;;;;;15.90;5.50;;;;;;;12.93;74.33;98637.80;105296;1259;107321;-77
2023/11/01 09:01:19;;;;;;;8.80;4.40;;;;;;;12.94;73.99;98637.69;104991;1262;96257;-79
2023/11/01 09:03:50;;;;;;;10.30;5.00;;;;;;;12.88;73.90;98634.66;105065;1263;107267;-79
2023/11/01 09:06:19;;;;;;;9.10;4.80;;;;;;;12.84;73.91;98640.90;104882;1264;96170;-78
2023/11/01 09:08:47;;;;;;;10.50;4.90;;;;;;;12.82;74.04;98634.91;105148;1257;96197;-79
2023/11/01 09:11:16;;;;;;;6.00;3.80;;;;;;;12.82;73.68;98638.96;105229;1260;107653;-78
2023/11/01 09:13:44;;;;;;;10.00;4.40;;;;;;;12.81;73.81;98640.30;104905;1260;95348;-78
2023/11/01 09:16:12;;;;;;;9.10;3.80;;;;;;;12.84;73.70;98640.75;105326;1260;107573;-79
2023/11/01 09:18:40;;;;;;;10.20;4.30;;;;;;;12.89;73.61;98642.98;105261;1259;95259;-77
2023/11/01 09:21:09;;;;;;;10.90;3.80;;;;;;;12.93;73.79;98639.06;105302;1254;96123;-78
2023/11/01 09:23:37;;;;;;;5.90;3.20;;;;;;;13.00;73.76;98639.73;105386;1254;107659;-79
2023/11/01 09:26:09;;;;;;;7.70;3.80;;;;;;;13.06;73.46;98643.28;105199;1259;95358;-79
2023/11/01 09:28:39;;;;;;;10.20;4.20;;;;;;;13.06;73.47;98639.52;105069;1261;107605;-78
2023/11/01 09:31:07;;;;;;;7.90;3.10;;;;;;;13.11;73.26;98635.84;105124;1254;96181;-79
2023/11/01 09:33:35;;;;;;;5.20;3.30;;;;;;;13.16;73.57;98632.06;105375;1259;95250;-78
2023/11/01 09:36:09;;;;;;;11.50;3.70;;;;;;;13.14;73.06;98632.71;105340;1257;107611;-79
2023/11/01 09:38:38;;;;;;;7.10;3.50;;;;;;;13.13;73.06;98630.88;105079;1263;95416;-81
2023/11/01 09:41:35;;;;;;;8.50;3.90;;;;;;;13.13;73.28;98633.23;105108;1254;107806;-79
2023/11/01 09:44:28;;;;;;;7.50;3.20;;;;;;;13.11;72.52;98634.44;105232;1260;96191;-78
2023/11/01 09:46:57;;;;;;;13.60;3.70;;;;;;;13.07;72.74;98631.58;105121;1263;95221;-77
2023/11/01 09:49:29;;;;;;;7.80;3.30;;;;;;;13.10;73.20;98627.23;105122;1254;108495;-76
2023/11/01 09:51:59;;;;;;;9.20;3.10;;;;;;;13.20;73.27;98634.87;105181;1276;97364;-77
2023/11/01 09:54:57;;;;;;;5.70;2.90;;;;;;;13.27;73.04;98628.89;104975;1260;107524;-79
2023/11/01 09:57:43;;;;;;;6.30;2.60;;;;;;;13.30;72.69;98631.45;105047;1260;95375;-77
2023/11/01 10:00:16;;;;;;;9.70;3.80;;;;;;;13.29;72.73;98632.08;105258;1260;95322;-79
2023/11/01 10:03:16;;;;;;;4.80;3.10;;;;;;;13.33;72.96;98625.86;105079;1262;111784;-79
2023/11/01 10:05:49;;;;;;;4.90;2.80;;;;;;;13.37;72.42;98625.98;105388;1253;95990;-79
2023/11/01 10:08:19;;;;;;;8.80;2.90;;;;;;;13.41;72.50;98625.19;105194;1261;107698;-78
2023/11/01 10:10:54;;;;;;;5.40;3.20;;;;;;;13.46;72.74;98620.59;104890;1254;96165;-79
2023/11/01 10:13:31;;;;;;;8.20;2.70;;;;;;;13.54;72.02;98618.31;105149;1262;95349;-78
2023/11/01 10:16:00;;;;;;;5.30;2.50;;;;;;;13.52;71.67;98615.61;105367;1260;108116;-80
2023/11/01 10:19:04;;;;;;;8.50;2.80;;;;;;;13.53;72.42;98610.40;105069;1262;95353;-79
2023/11/01 10:21:44;;;;;;;5.90;2.80;;;;;;;13.51;71.97;98608.55;104893;1277;107389;-79
2023/11/01 10:24:31;;;;;;;6.70;2.70;;;;;;;13.46;72.35;98608.02;105011;1259;96354;-78
2023/11/01 10:27:13;;;;;;;;;;;;;;;;;;;;;
2023/11/01 11:03:51;;;;;;;9.40;2.90;;;;;;;13.84;71.15;98607.33;102836;1289;636529;-77
2023/11/01 11:06:27;;;;;;;5.20;2.20;;;;;;;13.92;71.23;98605.58;104814;1272;94321;-81
2023/11/01 11:09:32;;;;;;;6.10;2.90;;;;;;;14.01;70.58;98611.70;104856;1260;94402;-78
2023/11/01 11:12:33;;;;;;;6.40;3.10;;;;;;;14.04;70.12;98612.08;104795;1266;107217;-79
2023/11/01 11:15:10;;;;;;;12.40;3.30;;;;;;;14.03;70.03;98605.98;105193;1259;95219;-79
2023/11/01 11:18:07;;;;;;;6.20;3.00;;;;;;;14.02;69.99;98609.78;105029;1268;336661;-77
2023/11/01 11:20:38;;;;;;;5.60;3.00;;;;;;;13.94;69.78;98604.45;105013;1263;94424;-81
2023/11/01 11:23:17;;;;;;;4.70;2.80;;;;;;;13.84;69.75;98605.73;105235;1254;94311;-78
2023/11/01 11:25:50;;;;;;;5.50;2.40;;;;;;;13.72;69.51;98603.45;105126;1260;106767;-79
2023/11/01 11:28:20;;;;;;;7.60;3.10;;;;;;;13.61;69.61;98609.33;105311;1260;95439;-79
2023/11/01 11:30:58;;;;;;;7.40;3.20;;;;;;;13.51;69.52;98606.99;105479;1267;107406;-78
2023/11/01 11:34:07;;;;;;;6.20;2.40;;;;;;;13.47;70.01;98607.34;105410;1260;96093;-78
2023/11/01 11:37:16;;;;;;;7.40;3.00;;;;;;;13.46;69.54;98608.01;105486;1259;95255;-88
2023/11/01 11:39:57;;;;;;;8.00;3.70;;;;;;;13.37;69.74;98604.70;105626;1263;109024;-81
2023/11/01 11:42:41;;;;;;;10.70;5.70;;;;;;;13.30;69.57;98611.72;105278;1259;97130;-79
2023/11/01 11:45:26;;;;;;;10.00;3.60;;;;;;;13.24;69.65;98616.20;105502;1260;107610;-79
2023/11/01 11:48:34;;;;;;;8.20;3.60;;;;;;;13.21;69.80;98614.15;105171;1261;95256;-85
2023/11/01 11:51:07;;;;;;;7.70;3.20;;;;;;;13.23;69.76;98615.59;105312;1254;95234;-78
2023/11/01 11:53:56;;;;;;;9.70;3.40;;;;;;;13.31;69.67;98614.11;102603;1286;636361;-78
2023/11/01 11:57:17;;;;;;;6.90;2.90;;;;;;;13.34;69.80;98615.80;104630;1272;94338;-80
2023/11/01 12:03:51;;;;;;;9.80;3.60;;;;;;;13.37;69.79;98612.67;104813;1276;108329;-84
2023/11/01 12:07:04;;;;;;;9.70;3.50;;;;;;;13.35;69.65;98616.22;104403;1254;2733817;-86
2023/11/01 12:10:05;;;;;;;;;;;;;;;;;;;;;
2023/11/01 12:13:09;;;;;;;10.60;3.90;;;;;;;13.30;69.69;98607.81;105558;1262;94295;-79
2023/11/01 12:15:54;;;;;;;8.10;3.60;;;;;;;13.31;69.69;98612.04;105034;1262;94302;-78
2023/11/01 12:18:24;;;;;;;6.90;3.50;;;;;;;13.29;69.59;98616.27;105470;1259;107262;-78
2023/11/01 12:20:55;;;;;;;9.60;3.50;;;;;;;13.28;69.55;98614.20;105439;1257;96083;-79
2023/11/01 12:23:26;;;;;;;11.10;3.60;;;;;;;13.27;69.49;98615.88;106752;1259;107699;-78
2023/11/01 12:26:11;;;;;;;11.30;4.10;;;;;;;13.26;69.38;98615.16;108516;1252;93024;-80
2023/11/01 12:28:48;;;;;;;8.10;3.80;;;;;;;13.23;69.40;98613.59;108366;1254;93658;-83
2023/11/01 12:31:16;;;;;;;7.80;3.60;;;;;;;13.27;69.38;98612.34;105923;1255;108886;-80
2023/11/01 12:33:44;;;;;;;10.90;4.00;;;;;;;13.34;69.37;98610.11;105291;1254;95192;-78
2023/11/01 12:36:28;;;;;;;12.20;3.90;;;;;;;13.45;69.40;98607.19;105353;1259;106723;-77
2023/11/01 12:39:16;;;;;;;16.40;4.00;;;;;;;13.56;69.26;98606.58;106901;1259;95221;-78
2023/11/01 12:41:47;;;;;;;12.60;4.10;;;;;;;13.60;69.11;98607.41;105319;1259;95724;-78
2023/11/01 12:44:16;;;;;;;9.60;4.40;;;;;;;13.58;69.07;98607.25;105407;1254;107173;-82
2023/11/01 12:46:44;;;;;;;12.10;4.50;;;;;;;13.56;69.05;98602.41;105442;1259;95163;-79
2023/11/01 12:49:12;;;;;;;9.90;4.00;;;;;;;13.54;69.10;98607.77;108121;1254;108526;-79
2023/11/01 12:51:40;;;;;;;10.40;3.60;;;;;;;13.50;69.15;98605.17;105436;1259;96264;-80
2023/11/01 12:54:08;;;;;;;9.00;3.70;;;;;;;13.44;69.03;98602.65;105413;1256;95345;-78
2023/11/01 12:56:36;;;;;;;13.60;4.20;;;;;;;13.40;69.18;98603.67;105212;1259;108269;-80
2023/11/01 12:59:10;;;;;;;15.80;6.20;;;;;;;13.37;69.07;98602.00;105195;1253;95928;-82
2023/11/01 13:01:38;;;;;;;21.50;9.90;;;;;;;13.32;69.11;98605.70;105395;1261;107310;-79
2023/11/01 13:04:09;;;;;;;16.40;6.50;;;;;;;13.25;69.02;98608.58;105839;1257;95292;-79
2023/11/01 13:06:38;;;;;;;17.00;7.00;;;;;;;13.24;69.00;98605.98;105402;1259;96195;-79
2023/11/01 13:09:14;;;;;;;19.60;8.00;;;;;;;13.25;69.01;98603.05;105660;1257;108121;-80
2023/11/01 13:11:42;;;;;;;22.20;9.20;;;;;;;13.25;69.04;98600.25;105261;1267;96084;-79
2023/11/01 13:14:11;;;;;;;23.50;10.90;;;;;;;13.25;68.92;98601.14;105530;1260;107804;-79
